createdAt,value
2018-09-26T00:02:03.867Z,2.87
2018-09-26T00:04:31.731Z,2.47
2018-09-26T00:06:59.221Z,2.50
2018-09-26T00:09:27.225Z,2.23
2018-09-26T00:11:54.761Z,2.43
2018-09-26T00:14:22.244Z,2.40
2018-09-26T00:16:49.810Z,2.07
2018-09-26T00:19:17.267Z,2.20
2018-09-26T00:21:44.839Z,2.63
2018-09-26T00:24:12.497Z,2.57
2018-09-26T00:26:39.907Z,2.30
2018-09-26T00:29:07.371Z,2.63
2018-09-26T00:31:34.864Z,2.73
2018-09-26T00:34:02.373Z,2.60
2018-09-26T00:36:29.952Z,2.73
2018-09-26T00:38:57.427Z,2.63
2018-09-26T00:41:24.893Z,2.37
2018-09-26T00:43:52.297Z,3.20
2018-09-26T00:46:19.747Z,2.10
2018-09-26T00:48:47.153Z,2.63
2018-09-26T00:51:14.590Z,2.60
2018-09-26T00:53:42.031Z,2.10
2018-09-26T00:56:09.643Z,2.93
2018-09-26T00:58:37.097Z,2.60
2018-09-26T01:01:04.645Z,2.83
2018-09-26T01:03:32.016Z,2.53
2018-09-26T01:05:59.483Z,2.20
2018-09-26T01:08:27.017Z,2.70
2018-09-26T01:10:54.401Z,1.83
2018-09-26T01:13:21.767Z,2.80
2018-09-26T01:15:49.287Z,3.07
2018-09-26T01:18:16.879Z,2.50
2018-09-26T01:20:44.687Z,2.57
2018-09-26T01:23:12.590Z,2.83
2018-09-26T01:25:40.425Z,2.30
2018-09-26T01:28:07.873Z,2.63
2018-09-26T01:30:35.375Z,3.00
2018-09-26T01:33:02.884Z,2.40
2018-09-26T01:35:30.320Z,2.20
2018-09-26T01:37:57.760Z,3.00
2018-09-26T01:40:25.195Z,2.90
2018-09-26T01:42:52.583Z,2.80
2018-09-26T01:45:20.343Z,3.20
2018-09-26T01:47:47.711Z,3.17
2018-09-26T01:50:15.149Z,3.40
2018-09-26T01:52:42.557Z,2.53
2018-09-26T01:55:10.029Z,2.93
2018-09-26T01:57:37.449Z,3.20
2018-09-26T02:00:05.229Z,2.83
2018-09-26T02:02:32.859Z,2.83
2018-09-26T02:05:00.271Z,3.30
2018-09-26T02:07:27.787Z,2.70
2018-09-26T02:09:55.297Z,3.87
2018-09-26T02:12:22.745Z,3.10
2018-09-26T02:14:50.215Z,3.27
2018-09-26T02:17:17.683Z,3.30
2018-09-26T02:19:45.065Z,2.60
2018-09-26T02:22:12.579Z,3.03
2018-09-26T02:24:40.005Z,2.80
2018-09-26T02:27:07.669Z,2.47
2018-09-26T02:29:35.164Z,2.63
2018-09-26T02:32:02.751Z,3.30
2018-09-26T02:34:30.179Z,2.77
2018-09-26T02:36:57.705Z,3.20
2018-09-26T02:39:26.159Z,3.63
2018-09-26T02:41:53.609Z,2.63
2018-09-26T02:44:21.432Z,3.20
2018-09-26T02:46:49.283Z,2.73
2018-09-26T02:49:16.679Z,2.87
2018-09-26T02:51:44.188Z,3.10
2018-09-26T02:54:11.609Z,3.00
2018-09-26T02:56:39.169Z,3.43
2018-09-26T02:59:06.587Z,3.10
2018-09-26T03:01:34.003Z,3.33
2018-09-26T03:04:01.533Z,2.87
2018-09-26T03:06:28.960Z,2.90
2018-09-26T03:08:56.361Z,3.30
2018-09-26T03:11:23.893Z,3.33
2018-09-26T03:13:51.572Z,2.73
2018-09-26T03:16:19.067Z,2.60
2018-09-26T03:18:46.569Z,2.40
2018-09-26T03:21:14.077Z,2.93
2018-09-26T03:23:41.471Z,2.97
2018-09-26T03:26:09.000Z,2.70
2018-09-26T03:28:36.410Z,3.10
2018-09-26T03:31:03.957Z,2.87
2018-09-26T03:33:31.448Z,2.83
2018-09-26T03:35:58.998Z,2.60
2018-09-26T03:38:26.384Z,3.10
2018-09-26T03:40:53.904Z,2.90
2018-09-26T03:43:21.306Z,3.10
2018-09-26T03:45:48.876Z,2.13
2018-09-26T03:48:16.442Z,2.57
2018-09-26T03:50:43.986Z,2.83
2018-09-26T03:53:11.390Z,2.40
2018-09-26T03:55:38.932Z,2.23
2018-09-26T03:58:06.400Z,2.40
2018-09-26T04:00:33.812Z,3.07
2018-09-26T04:03:01.186Z,2.77
2018-09-26T04:05:28.630Z,2.50
2018-09-26T04:07:56.194Z,2.70
2018-09-26T04:10:23.746Z,3.00
2018-09-26T04:12:51.481Z,2.43
2018-09-26T04:15:18.792Z,3.33
2018-09-26T04:17:46.148Z,2.50
2018-09-26T04:20:13.686Z,2.60
2018-09-26T04:22:41.209Z,2.50
2018-09-26T04:25:08.654Z,2.13
2018-09-26T04:27:36.134Z,2.90
2018-09-26T04:30:04.026Z,2.60
2018-09-26T04:32:31.426Z,2.73
2018-09-26T04:34:58.822Z,2.03
2018-09-26T04:37:26.232Z,2.60
2018-09-26T04:39:53.696Z,2.53
2018-09-26T04:42:21.563Z,2.30
2018-09-26T04:44:49.002Z,2.53
2018-09-26T04:47:16.438Z,2.80
2018-09-26T04:49:43.851Z,2.77
2018-09-26T04:52:11.290Z,2.57
2018-09-26T04:54:38.714Z,3.00
2018-09-26T04:57:06.352Z,2.70
2018-09-26T04:59:33.930Z,2.63
2018-09-26T05:02:01.464Z,2.80
2018-09-26T05:04:28.972Z,2.40
2018-09-26T05:06:56.403Z,2.20
2018-09-26T05:09:23.934Z,3.00
2018-09-26T05:11:51.660Z,3.00
2018-09-26T05:14:19.098Z,2.77
2018-09-26T05:16:46.557Z,3.00
2018-09-26T05:19:14.146Z,2.80
2018-09-26T05:21:41.652Z,3.20
2018-09-26T05:24:09.166Z,2.53
2018-09-26T05:26:36.657Z,2.80
2018-09-26T05:29:04.087Z,3.07
2018-09-26T05:31:31.460Z,2.23
2018-09-26T05:33:58.886Z,2.80
2018-09-26T05:36:26.464Z,3.23
2018-09-26T05:38:54.162Z,2.90
2018-09-26T05:41:21.658Z,3.20
2018-09-26T05:43:49.170Z,3.03
2018-09-26T05:46:16.632Z,2.90
2018-09-26T05:48:44.485Z,3.43
2018-09-26T05:51:11.982Z,3.60
2018-09-26T05:53:39.485Z,3.10
2018-09-26T05:56:07.072Z,2.63
2018-09-26T05:58:34.516Z,2.57
2018-09-26T06:01:01.972Z,2.50
2018-09-26T06:03:29.374Z,3.57
2018-09-26T06:05:56.779Z,3.20
2018-09-26T06:08:24.183Z,3.30
2018-09-26T06:10:51.964Z,3.17
2018-09-26T06:13:19.310Z,3.73
2018-09-26T06:15:46.742Z,4.60
2018-09-26T06:18:14.318Z,4.37
2018-09-26T06:20:41.753Z,3.60
2018-09-26T06:23:09.125Z,3.80
2018-09-26T06:25:36.575Z,4.20
2018-09-26T06:28:03.998Z,5.00
2018-09-26T06:30:31.435Z,5.67
2018-09-26T06:32:58.829Z,7.27
2018-09-26T06:35:26.278Z,4.60
2018-09-26T06:37:53.649Z,5.50
2018-09-26T06:40:21.251Z,5.83
2018-09-26T06:42:49.385Z,5.43
2018-09-26T06:45:16.809Z,5.03
2018-09-26T06:47:44.230Z,5.30
2018-09-26T06:50:11.649Z,4.63
2018-09-26T06:52:39.050Z,3.90
2018-09-26T06:55:06.466Z,3.87
2018-09-26T06:57:33.878Z,3.90
2018-09-26T07:00:01.346Z,4.00
2018-09-26T07:02:28.771Z,4.57
2018-09-26T07:04:56.158Z,3.57
2018-09-26T07:07:23.603Z,4.00
2018-09-26T07:09:51.036Z,4.10
2018-09-26T07:12:18.514Z,5.17
2018-09-26T07:14:45.849Z,4.00
2018-09-26T07:17:13.623Z,4.00
2018-09-26T07:19:41.037Z,3.80
2018-09-26T07:22:08.519Z,5.13
2018-09-26T07:24:35.971Z,3.83
2018-09-26T07:27:03.510Z,4.03
2018-09-26T07:29:31.084Z,4.40
2018-09-26T07:31:58.578Z,4.17
2018-09-26T07:34:31.834Z,4.13
2018-09-26T07:36:59.627Z,3.10
2018-09-26T07:39:27.094Z,3.77
2018-09-26T07:41:54.557Z,3.50
2018-09-26T07:44:22.043Z,2.33
2018-09-26T07:46:49.682Z,2.80
2018-09-26T07:49:17.180Z,3.33
2018-09-26T07:51:44.662Z,2.73
2018-09-26T07:54:12.162Z,2.90
2018-09-26T07:56:39.631Z,3.17
2018-09-26T07:59:07.235Z,2.93
2018-09-26T08:01:34.888Z,3.10
2018-09-26T08:04:02.411Z,3.43
2018-09-26T08:06:29.928Z,3.20
2018-09-26T08:08:57.395Z,2.67
2018-09-26T08:11:24.890Z,4.53
2018-09-26T08:13:52.297Z,3.53
2018-09-26T08:16:19.752Z,3.30
2018-09-26T08:18:47.175Z,3.17
2018-09-26T08:21:14.712Z,2.93
2018-09-26T08:23:42.165Z,2.87
2018-09-26T08:26:09.590Z,2.80
2018-09-26T08:28:37.016Z,2.67
2018-09-26T08:31:04.458Z,2.50
2018-09-26T08:33:31.886Z,2.70
2018-09-26T08:35:59.415Z,2.73
2018-09-26T08:38:26.798Z,2.70
2018-09-26T08:40:54.326Z,2.37
2018-09-26T08:43:21.788Z,2.33
2018-09-26T08:45:49.222Z,3.00
2018-09-26T08:48:16.671Z,2.30
2018-09-26T08:50:44.161Z,2.60
2018-09-26T08:53:11.656Z,2.73
2018-09-26T08:55:39.072Z,2.57
2018-09-26T08:58:06.532Z,2.83
2018-09-26T09:00:35.910Z,2.60
2018-09-26T09:03:04.435Z,2.37
2018-09-26T09:05:31.942Z,2.80
2018-09-26T09:08:00.010Z,2.53
2018-09-26T09:10:27.571Z,2.73
2018-09-26T09:12:54.984Z,3.10
2018-09-26T09:15:22.513Z,2.80
2018-09-26T09:17:50.031Z,3.20
2018-09-26T09:20:17.474Z,3.20
2018-09-26T09:22:45.893Z,3.40
2018-09-26T09:25:13.364Z,3.33
2018-09-26T09:27:41.012Z,2.80
2018-09-26T09:30:08.414Z,2.93
2018-09-26T09:32:35.931Z,3.23
2018-09-26T09:35:03.530Z,3.23
2018-09-26T09:37:30.990Z,3.27
2018-09-26T09:39:58.447Z,3.80
2018-09-26T09:42:26.083Z,3.87
2018-09-26T09:44:53.546Z,3.47
2018-09-26T09:47:20.958Z,3.40
2018-09-26T09:49:48.442Z,4.20
2018-09-26T09:52:15.890Z,3.00
2018-09-26T09:54:43.286Z,2.73
2018-09-26T09:57:10.782Z,3.80
2018-09-26T09:59:38.226Z,3.97
2018-09-26T10:02:05.799Z,3.10
2018-09-26T10:04:33.234Z,3.00
2018-09-26T10:07:00.838Z,3.10
2018-09-26T10:09:28.386Z,3.10
2018-09-26T10:11:55.948Z,3.27
2018-09-26T10:14:23.360Z,3.97
2018-09-26T10:16:51.005Z,2.53
2018-09-26T10:19:18.462Z,2.80
2018-09-26T10:21:45.970Z,2.73
2018-09-26T10:24:13.461Z,3.20
2018-09-26T10:26:41.190Z,2.30
2018-09-26T10:29:08.713Z,2.60
2018-09-26T10:31:36.211Z,2.37
2018-09-26T10:34:03.826Z,2.50
2018-09-26T10:36:31.329Z,2.10
2018-09-26T10:38:58.760Z,2.33
2018-09-26T10:41:26.222Z,4.00
2018-09-26T10:43:53.694Z,2.40
2018-09-26T10:46:21.189Z,2.80
2018-09-26T10:48:48.662Z,2.93
2018-09-26T10:51:16.220Z,2.50
2018-09-26T10:53:43.626Z,2.53
2018-09-26T10:56:11.069Z,2.97
2018-09-26T10:58:38.446Z,2.63
2018-09-26T11:01:06.104Z,2.40
2018-09-26T11:03:33.565Z,3.07
2018-09-26T11:06:00.954Z,2.60
2018-09-26T11:08:28.410Z,2.87
2018-09-26T11:10:55.882Z,2.40
2018-09-26T11:13:23.306Z,2.80
2018-09-26T11:15:50.776Z,2.37
2018-09-26T11:18:18.330Z,2.73
2018-09-26T11:20:45.874Z,2.17
2018-09-26T11:23:13.279Z,2.40
2018-09-26T11:25:40.750Z,2.67
2018-09-26T11:28:08.209Z,3.03
2018-09-26T11:30:35.649Z,2.80
2018-09-26T11:33:03.085Z,2.03
2018-09-26T11:35:30.514Z,2.70
2018-09-26T11:37:57.925Z,2.37
2018-09-26T11:40:25.487Z,2.47
2018-09-26T11:42:52.885Z,2.30
2018-09-26T11:45:20.338Z,1.97
2018-09-26T11:47:47.778Z,2.07
2018-09-26T11:50:15.261Z,2.27
2018-09-26T11:52:42.674Z,2.13
2018-09-26T11:55:10.247Z,2.80
2018-09-26T11:57:37.722Z,2.50
2018-09-26T12:00:05.173Z,2.33
2018-09-26T12:02:32.994Z,2.10
2018-09-26T12:05:00.376Z,1.90
2018-09-26T12:07:27.790Z,2.10
2018-09-26T12:09:55.262Z,2.37
2018-09-26T12:12:23.345Z,2.17
2018-09-26T12:14:50.841Z,1.90
2018-09-26T12:17:18.293Z,2.20
2018-09-26T12:19:45.742Z,2.00
2018-09-26T12:22:13.186Z,2.00
2018-09-26T12:24:40.766Z,2.30
2018-09-26T12:27:08.169Z,1.90
2018-09-26T12:29:35.665Z,1.97
2018-09-26T12:32:03.133Z,2.00
2018-09-26T12:34:30.512Z,2.90
2018-09-26T12:36:58.013Z,2.10
2018-09-26T12:39:25.473Z,2.10
2018-09-26T12:41:52.887Z,1.93
2018-09-26T12:44:20.269Z,2.00
2018-09-26T12:46:48.583Z,2.27
2018-09-26T12:49:15.990Z,2.73
2018-09-26T12:51:43.557Z,2.00
2018-09-26T12:54:10.963Z,1.90
2018-09-26T12:56:38.397Z,1.67
2018-09-26T12:59:05.913Z,2.60
2018-09-26T13:01:33.477Z,2.67
2018-09-26T13:04:00.895Z,2.47
2018-09-26T13:06:28.394Z,2.37
2018-09-26T13:08:55.935Z,2.30
2018-09-26T13:11:23.473Z,2.10
2018-09-26T13:13:51.212Z,2.30
2018-09-26T13:16:18.719Z,2.50
2018-09-26T13:18:46.212Z,2.10
2018-09-26T13:21:13.749Z,3.20
2018-09-26T13:23:41.201Z,2.50
2018-09-26T13:26:08.815Z,2.63
2018-09-26T13:28:36.218Z,2.10
2018-09-26T13:31:03.915Z,1.80
2018-09-26T13:33:31.296Z,2.10
2018-09-26T13:35:58.729Z,3.10
2018-09-26T13:38:26.407Z,2.33
2018-09-26T13:40:53.761Z,2.47
2018-09-26T13:43:21.169Z,2.30
2018-09-26T13:45:48.983Z,2.47
2018-09-26T13:48:16.445Z,2.10
2018-09-26T13:50:43.909Z,1.90
2018-09-26T13:53:11.465Z,2.70
2018-09-26T13:55:38.897Z,2.10
2018-09-26T13:58:06.360Z,2.13
2018-09-26T14:00:34.005Z,2.30
2018-09-26T14:03:01.369Z,2.40
2018-09-26T14:05:28.839Z,2.03
2018-09-26T14:07:56.276Z,2.93
2018-09-26T14:10:23.715Z,2.10
2018-09-26T14:12:51.186Z,2.07
2018-09-26T14:15:18.790Z,1.83
2018-09-26T14:17:46.252Z,2.20
2018-09-26T14:20:13.868Z,2.10
2018-09-26T14:22:41.300Z,2.10
2018-09-26T14:25:08.731Z,1.70
2018-09-26T14:27:36.235Z,1.80
2018-09-26T14:30:03.904Z,2.27
2018-09-26T14:32:31.415Z,2.03
2018-09-26T14:34:58.863Z,2.43
2018-09-26T14:37:26.367Z,2.00
2018-09-26T14:39:53.949Z,2.00
2018-09-26T14:42:21.934Z,2.10
2018-09-26T14:44:49.518Z,1.93
2018-09-26T14:47:17.063Z,1.73
2018-09-26T14:49:44.518Z,1.80
2018-09-26T14:52:12.098Z,1.97
2018-09-26T14:54:39.606Z,1.90
2018-09-26T14:57:07.053Z,2.00
2018-09-26T14:59:34.535Z,2.00
2018-09-26T15:02:01.998Z,1.93
2018-09-26T15:04:29.485Z,2.10
2018-09-26T15:06:56.974Z,1.80
2018-09-26T15:09:24.506Z,1.80
2018-09-26T15:11:51.929Z,2.00
2018-09-26T15:14:19.427Z,1.90
2018-09-26T15:16:46.918Z,1.60
2018-09-26T15:19:14.357Z,2.07
2018-09-26T15:21:41.881Z,1.80
2018-09-26T15:24:09.367Z,2.20
2018-09-26T15:26:36.763Z,2.83
2018-09-26T15:29:04.228Z,2.20
2018-09-26T15:31:31.630Z,2.33
2018-09-26T15:33:59.025Z,1.97
2018-09-26T15:36:26.703Z,2.27
2018-09-26T15:38:54.287Z,2.00
2018-09-26T15:41:21.833Z,2.70
2018-09-26T15:43:49.291Z,1.90
2018-09-26T15:46:16.765Z,2.23
2018-09-26T15:48:44.241Z,2.47
2018-09-26T15:51:11.713Z,1.50
2018-09-26T15:53:39.149Z,1.87
2018-09-26T15:56:06.693Z,2.00
2018-09-26T15:58:34.095Z,2.43
2018-09-26T16:01:01.612Z,2.70
2018-09-26T16:03:29.085Z,2.10
2018-09-26T16:05:56.570Z,1.57
2018-09-26T16:08:24.147Z,2.03
2018-09-26T16:10:51.592Z,2.60
2018-09-26T16:13:18.988Z,2.90
2018-09-26T16:15:46.366Z,2.10
2018-09-26T16:18:13.777Z,2.10
2018-09-26T16:20:41.211Z,3.10
2018-09-26T16:23:08.681Z,2.83
2018-09-26T16:25:36.283Z,2.00
2018-09-26T16:28:03.716Z,2.70
2018-09-26T16:30:31.250Z,2.90
2018-09-26T16:32:58.705Z,2.40
2018-09-26T16:35:26.329Z,2.50
2018-09-26T16:37:53.735Z,2.03
2018-09-26T16:40:21.200Z,2.20
2018-09-26T16:42:48.690Z,2.70
2018-09-26T16:45:16.261Z,2.20
2018-09-26T16:47:43.566Z,1.70
2018-09-26T16:50:11.228Z,1.53
2018-09-26T16:52:38.643Z,2.50
2018-09-26T16:55:06.100Z,2.23
2018-09-26T16:57:33.563Z,2.57
2018-09-26T17:00:01.053Z,2.03
2018-09-26T17:02:28.546Z,2.77
2018-09-26T17:04:56.050Z,2.33
2018-09-26T17:07:23.604Z,4.30
2018-09-26T17:09:51.062Z,3.10
2018-09-26T17:12:18.541Z,2.10
2018-09-26T17:14:46.006Z,2.20
2018-09-26T17:17:13.428Z,3.30
2018-09-26T17:19:40.875Z,3.63
2018-09-26T17:22:08.353Z,3.97
2018-09-26T17:24:35.742Z,4.07
2018-09-26T17:27:03.223Z,3.50
2018-09-26T17:29:30.611Z,4.07
2018-09-26T17:31:58.060Z,3.47
2018-09-26T17:34:25.696Z,3.80
2018-09-26T17:36:53.441Z,3.60
2018-09-26T17:39:20.938Z,2.70
2018-09-26T17:41:48.413Z,4.03
2018-09-26T17:44:15.914Z,3.90
2018-09-26T17:46:43.401Z,3.90
2018-09-26T17:49:11.168Z,3.60
2018-09-26T17:51:38.747Z,4.57
2018-09-26T17:54:06.250Z,4.10
2018-09-26T17:56:33.753Z,3.70
2018-09-26T17:59:01.308Z,3.73
2018-09-26T18:01:28.979Z,3.80
2018-09-26T18:03:56.401Z,3.50
2018-09-26T18:06:23.875Z,3.50
2018-09-26T18:08:51.373Z,3.50
2018-09-26T18:11:18.885Z,4.00
2018-09-26T18:13:46.313Z,3.30
2018-09-26T18:16:13.991Z,3.50
2018-09-26T18:18:41.537Z,2.97
2018-09-26T18:21:08.991Z,3.33
2018-09-26T18:23:36.445Z,3.77
2018-09-26T18:26:04.064Z,3.20
2018-09-26T18:28:32.201Z,4.13
2018-09-26T18:31:01.130Z,3.93
2018-09-26T18:33:30.539Z,4.08
2018-09-26T18:35:58.840Z,4.30
2018-09-26T18:38:28.237Z,4.00
2018-09-26T18:40:55.872Z,3.90
2018-09-26T18:43:23.448Z,5.60
2018-09-26T18:45:51.202Z,4.70
2018-09-26T18:48:19.816Z,5.40
2018-09-26T18:50:48.456Z,5.00
2018-09-26T18:53:16.950Z,4.17
2018-09-26T18:55:44.575Z,3.83
2018-09-26T18:58:12.077Z,4.73
2018-09-26T19:00:39.591Z,4.37
2018-09-26T19:03:07.197Z,6.53
2018-09-26T19:05:34.712Z,4.13
2018-09-26T19:08:02.163Z,4.60
2018-09-26T19:10:29.798Z,4.70
2018-09-26T19:12:57.394Z,3.90
2018-09-26T19:15:24.903Z,4.77
2018-09-26T19:17:52.346Z,5.40
2018-09-26T19:20:19.815Z,3.93
2018-09-26T19:22:47.292Z,4.50
2018-09-26T19:25:14.866Z,5.40
2018-09-26T19:27:42.482Z,5.57
2018-09-26T19:30:10.151Z,6.07
2018-09-26T19:32:37.617Z,5.90
2018-09-26T19:35:05.175Z,5.07
2018-09-26T19:37:32.721Z,5.30
2018-09-26T19:40:00.241Z,4.90
2018-09-26T19:42:27.675Z,4.87
2018-09-26T19:44:55.151Z,5.27
2018-09-26T19:47:22.699Z,5.47
2018-09-26T19:49:50.128Z,5.23
2018-09-26T19:52:17.678Z,5.20
2018-09-26T19:54:45.116Z,5.70
2018-09-26T19:57:13.198Z,5.77
2018-09-26T19:59:40.872Z,5.30
2018-09-26T20:02:08.607Z,6.03
2018-09-26T20:04:36.354Z,5.33
2018-09-26T20:07:03.855Z,4.93
2018-09-26T20:09:31.503Z,4.87
2018-09-26T20:11:58.955Z,5.00
2018-09-26T20:14:26.443Z,4.77
2018-09-26T20:16:54.016Z,5.13
2018-09-26T20:19:21.437Z,5.27
2018-09-26T20:21:49.080Z,5.40
2018-09-26T20:24:16.506Z,5.27
2018-09-26T20:26:44.058Z,4.57
2018-09-26T20:29:11.492Z,4.97
2018-09-26T20:31:38.927Z,5.40
2018-09-26T20:34:06.436Z,5.60
2018-09-26T20:36:33.896Z,4.93
2018-09-26T20:39:01.398Z,5.07
2018-09-26T20:41:28.884Z,5.97
2018-09-26T20:43:56.395Z,5.60
2018-09-26T20:46:23.862Z,6.20
2018-09-26T20:48:51.674Z,6.30
2018-09-26T20:51:19.978Z,5.97
2018-09-26T20:53:47.426Z,5.67
2018-09-26T20:56:14.866Z,5.27
2018-09-26T20:58:42.298Z,6.17
2018-09-26T21:01:09.738Z,4.73
2018-09-26T21:03:37.146Z,5.37
2018-09-26T21:06:04.630Z,4.17
2018-09-26T21:08:32.040Z,5.53
2018-09-26T21:10:59.790Z,5.57
2018-09-26T21:13:28.047Z,5.50
2018-09-26T21:15:55.885Z,5.43
2018-09-26T21:18:23.270Z,5.83
2018-09-26T21:20:50.831Z,6.10
2018-09-26T21:23:18.276Z,5.07
2018-09-26T21:25:45.704Z,5.33
2018-09-26T21:28:13.322Z,5.90
2018-09-26T21:30:40.865Z,4.90
2018-09-26T21:33:08.559Z,5.23
2018-09-26T21:35:36.113Z,5.50
2018-09-26T21:38:03.545Z,6.27
2018-09-26T21:40:31.120Z,5.40
2018-09-26T21:42:58.673Z,5.10
2018-09-26T21:45:26.194Z,5.27
2018-09-26T21:47:53.707Z,4.77
2018-09-26T21:50:21.177Z,4.60
2018-09-26T21:52:48.759Z,5.70
2018-09-26T21:55:16.326Z,5.50
2018-09-26T21:57:43.742Z,5.23
2018-09-26T22:00:11.224Z,6.67
2018-09-26T22:02:38.678Z,6.30
2018-09-26T22:05:06.327Z,6.20
2018-09-26T22:07:33.936Z,4.23
2018-09-26T22:10:01.398Z,5.30
2018-09-26T22:12:28.870Z,5.00
2018-09-26T22:14:56.400Z,4.60
2018-09-26T22:17:23.805Z,4.70
2018-09-26T22:19:51.393Z,3.83
2018-09-26T22:22:19.001Z,4.07
2018-09-26T22:24:46.421Z,3.83
2018-09-26T22:27:13.892Z,4.97
2018-09-26T22:29:41.362Z,5.10
2018-09-26T22:32:08.788Z,4.00
2018-09-26T22:34:36.206Z,3.73
2018-09-26T22:37:03.703Z,3.97
2018-09-26T22:39:31.233Z,3.37
2018-09-26T22:41:58.617Z,3.30
2018-09-26T22:44:26.082Z,3.23
2018-09-26T22:46:53.487Z,3.50
2018-09-26T22:49:20.945Z,3.47
2018-09-26T22:51:48.581Z,3.30
2018-09-26T22:54:16.035Z,3.10
2018-09-26T22:56:43.461Z,3.43
2018-09-26T22:59:11.367Z,4.20
2018-09-26T23:01:38.797Z,3.40
2018-09-26T23:04:06.539Z,3.53
2018-09-26T23:06:33.998Z,3.70
2018-09-26T23:09:01.424Z,3.57
2018-09-26T23:11:28.987Z,3.97
2018-09-26T23:13:56.423Z,3.90
2018-09-26T23:16:23.857Z,3.97
2018-09-26T23:18:51.371Z,3.23
2018-09-26T23:21:18.785Z,3.50
2018-09-26T23:23:46.181Z,3.20
2018-09-26T23:26:13.630Z,3.87
2018-09-26T23:28:41.127Z,4.40
2018-09-26T23:31:08.577Z,3.73
2018-09-26T23:33:36.063Z,3.93
2018-09-26T23:36:03.549Z,4.70
2018-09-26T23:38:30.963Z,3.70
2018-09-26T23:40:58.500Z,4.23
2018-09-26T23:43:26.061Z,3.93
2018-09-26T23:45:53.593Z,3.97
2018-09-26T23:48:21.091Z,4.37
2018-09-26T23:50:48.516Z,4.40
2018-09-26T23:53:15.961Z,4.70
2018-09-26T23:55:43.377Z,4.40
2018-09-26T23:58:10.887Z,4.20
